sensor_id;sensor_type;location;lat;lon;timestamp;P1;durP1;ratioP1;P2;durP2;ratioP2
7334;SDS011;3708;42.632;23.378;2023-05-07T00:00:03;5.00;;;3.93;;
7334;SDS011;3708;42.632;23.378;2023-05-07T00:02:33;5.03;;;3.23;;
7334;SDS011;3708;42.632;23.378;2023-05-07T00:04:59;5.03;;;3.53;;
7334;SDS011;3708;42.632;23.378;2023-05-07T00:07:27;4.27;;;3.87;;
7334;SDS011;3708;42.632;23.378;2023-05-07T00:09:54;4.40;;;3.90;;
7334;SDS011;3708;42.632;23.378;2023-05-07T00:12:21;4.40;;;3.77;;
7334;SDS011;3708;42.632;23.378;2023-05-07T00:14:47;5.57;;;3.83;;
7334;SDS011;3708;42.632;23.378;2023-05-07T00:17:16;6.33;;;4.40;;
7334;SDS011;3708;42.632;23.378;2023-05-07T00:19:42;8.60;;;4.43;;
7334;SDS011;3708;42.632;23.378;2023-05-07T00:22:09;7.57;;;5.63;;
7334;SDS011;3708;42.632;23.378;2023-05-07T00:24:36;11.07;;;5.20;;
7334;SDS011;3708;42.632;23.378;2023-05-07T00:27:03;7.07;;;4.97;;
7334;SDS011;3708;42.632;23.378;2023-05-07T00:29:30;7.57;;;5.90;;
7334;SDS011;3708;42.632;23.378;2023-05-07T00:31:57;8.57;;;6.23;;
7334;SDS011;3708;42.632;23.378;2023-05-07T00:34:25;12.27;;;7.63;;
7334;SDS011;3708;42.632;23.378;2023-05-07T00:36:52;12.73;;;6.73;;
7334;SDS011;3708;42.632;23.378;2023-05-07T00:39:18;12.17;;;7.57;;
7334;SDS011;3708;42.632;23.378;2023-05-07T00:41:45;10.17;;;8.23;;
7334;SDS011;3708;42.632;23.378;2023-05-07T00:44:12;13.47;;;6.80;;
7334;SDS011;3708;42.632;23.378;2023-05-07T00:46:39;9.07;;;6.40;;
7334;SDS011;3708;42.632;23.378;2023-05-07T00:49:06;10.40;;;7.40;;
7334;SDS011;3708;42.632;23.378;2023-05-07T00:51:35;10.23;;;7.07;;
7334;SDS011;3708;42.632;23.378;2023-05-07T00:54:02;12.03;;;5.03;;
7334;SDS011;3708;42.632;23.378;2023-05-07T00:56:30;6.40;;;5.10;;
7334;SDS011;3708;42.632;23.378;2023-05-07T00:58:58;5.57;;;4.33;;
7334;SDS011;3708;42.632;23.378;2023-05-07T01:01:25;4.93;;;4.10;;
7334;SDS011;3708;42.632;23.378;2023-05-07T01:03:52;5.63;;;3.83;;
7334;SDS011;3708;42.632;23.378;2023-05-07T01:06:19;7.60;;;4.10;;
7334;SDS011;3708;42.632;23.378;2023-05-07T01:08:50;5.07;;;4.17;;
7334;SDS011;3708;42.632;23.378;2023-05-07T01:11:18;7.67;;;3.73;;
7334;SDS011;3708;42.632;23.378;2023-05-07T01:13:45;5.93;;;4.93;;
7334;SDS011;3708;42.632;23.378;2023-05-07T01:16:13;5.40;;;4.30;;
7334;SDS011;3708;42.632;23.378;2023-05-07T01:18:40;7.27;;;4.80;;
7334;SDS011;3708;42.632;23.378;2023-05-07T01:21:07;6.10;;;4.40;;
7334;SDS011;3708;42.632;23.378;2023-05-07T01:23:38;6.17;;;4.90;;
7334;SDS011;3708;42.632;23.378;2023-05-07T01:26:06;5.43;;;4.30;;
7334;SDS011;3708;42.632;23.378;2023-05-07T01:28:32;8.43;;;4.57;;
7334;SDS011;3708;42.632;23.378;2023-05-07T01:31:00;5.13;;;4.47;;
7334;SDS011;3708;42.632;23.378;2023-05-07T01:33:31;6.17;;;4.50;;
7334;SDS011;3708;42.632;23.378;2023-05-07T01:36:01;9.53;;;5.03;;
7334;SDS011;3708;42.632;23.378;2023-05-07T01:38:31;7.23;;;5.50;;
7334;SDS011;3708;42.632;23.378;2023-05-07T01:41:00;7.80;;;5.37;;
7334;SDS011;3708;42.632;23.378;2023-05-07T01:43:27;5.53;;;4.80;;
7334;SDS011;3708;42.632;23.378;2023-05-07T01:45:55;7.80;;;5.93;;
7334;SDS011;3708;42.632;23.378;2023-05-07T01:48:24;8.27;;;6.40;;
7334;SDS011;3708;42.632;23.378;2023-05-07T01:50:51;7.80;;;6.30;;
7334;SDS011;3708;42.632;23.378;2023-05-07T01:53:19;7.77;;;6.90;;
7334;SDS011;3708;42.632;23.378;2023-05-07T01:55:46;8.67;;;6.80;;
7334;SDS011;3708;42.632;23.378;2023-05-07T01:58:14;8.57;;;6.83;;
7334;SDS011;3708;42.632;23.378;2023-05-07T02:00:41;8.97;;;7.53;;
7334;SDS011;3708;42.632;23.378;2023-05-07T02:03:07;9.33;;;7.63;;
7334;SDS011;3708;42.632;23.378;2023-05-07T02:05:34;11.27;;;7.60;;
7334;SDS011;3708;42.632;23.378;2023-05-07T02:08:01;11.50;;;8.00;;
7334;SDS011;3708;42.632;23.378;2023-05-07T02:10:28;9.53;;;7.90;;
7334;SDS011;3708;42.632;23.378;2023-05-07T02:12:54;9.97;;;8.20;;
7334;SDS011;3708;42.632;23.378;2023-05-07T02:15:22;9.03;;;7.43;;
7334;SDS011;3708;42.632;23.378;2023-05-07T02:17:59;10.50;;;8.13;;
7334;SDS011;3708;42.632;23.378;2023-05-07T02:20:27;9.90;;;8.07;;
7334;SDS011;3708;42.632;23.378;2023-05-07T02:22:54;8.17;;;6.90;;
7334;SDS011;3708;42.632;23.378;2023-05-07T02:25:21;9.60;;;7.00;;
7334;SDS011;3708;42.632;23.378;2023-05-07T02:27:48;10.63;;;7.20;;
7334;SDS011;3708;42.632;23.378;2023-05-07T02:30:15;8.67;;;7.83;;
7334;SDS011;3708;42.632;23.378;2023-05-07T02:32:43;8.37;;;7.30;;
7334;SDS011;3708;42.632;23.378;2023-05-07T02:35:10;10.13;;;7.97;;
7334;SDS011;3708;42.632;23.378;2023-05-07T02:37:37;11.53;;;8.47;;
7334;SDS011;3708;42.632;23.378;2023-05-07T02:40:04;9.97;;;8.23;;
7334;SDS011;3708;42.632;23.378;2023-05-07T02:42:32;10.43;;;7.60;;
7334;SDS011;3708;42.632;23.378;2023-05-07T02:44:58;9.30;;;8.10;;
7334;SDS011;3708;42.632;23.378;2023-05-07T02:47:25;9.83;;;8.00;;
7334;SDS011;3708;42.632;23.378;2023-05-07T02:49:55;10.20;;;9.10;;
7334;SDS011;3708;42.632;23.378;2023-05-07T02:52:22;10.73;;;8.03;;
7334;SDS011;3708;42.632;23.378;2023-05-07T02:54:48;10.03;;;8.50;;
7334;SDS011;3708;42.632;23.378;2023-05-07T02:57:15;10.27;;;9.07;;
7334;SDS011;3708;42.632;23.378;2023-05-07T02:59:42;11.37;;;8.43;;
7334;SDS011;3708;42.632;23.378;2023-05-07T03:02:09;12.77;;;9.33;;
7334;SDS011;3708;42.632;23.378;2023-05-07T03:04:36;12.87;;;9.60;;
7334;SDS011;3708;42.632;23.378;2023-05-07T03:07:04;20.20;;;11.00;;
7334;SDS011;3708;42.632;23.378;2023-05-07T03:09:31;14.47;;;11.47;;
7334;SDS011;3708;42.632;23.378;2023-05-07T03:11:57;13.13;;;11.13;;
7334;SDS011;3708;42.632;23.378;2023-05-07T03:14:24;13.43;;;10.90;;
7334;SDS011;3708;42.632;23.378;2023-05-07T03:16:51;13.40;;;10.30;;
7334;SDS011;3708;42.632;23.378;2023-05-07T03:19:18;14.40;;;11.40;;
7334;SDS011;3708;42.632;23.378;2023-05-07T03:21:44;13.43;;;11.37;;
7334;SDS011;3708;42.632;23.378;2023-05-07T03:24:13;14.43;;;12.17;;
7334;SDS011;3708;42.632;23.378;2023-05-07T03:26:40;14.00;;;11.50;;
7334;SDS011;3708;42.632;23.378;2023-05-07T03:29:07;18.23;;;10.87;;
7334;SDS011;3708;42.632;23.378;2023-05-07T03:31:34;16.73;;;12.30;;
7334;SDS011;3708;42.632;23.378;2023-05-07T03:34:01;15.67;;;12.37;;
7334;SDS011;3708;42.632;23.378;2023-05-07T03:36:28;15.50;;;12.43;;
7334;SDS011;3708;42.632;23.378;2023-05-07T03:38:54;14.07;;;12.07;;
7334;SDS011;3708;42.632;23.378;2023-05-07T03:41:22;16.27;;;11.80;;
7334;SDS011;3708;42.632;23.378;2023-05-07T03:43:50;15.33;;;12.60;;
7334;SDS011;3708;42.632;23.378;2023-05-07T03:46:17;15.47;;;12.87;;
7334;SDS011;3708;42.632;23.378;2023-05-07T03:48:44;16.43;;;11.33;;
7334;SDS011;3708;42.632;23.378;2023-05-07T03:51:11;15.43;;;11.63;;
7334;SDS011;3708;42.632;23.378;2023-05-07T03:53:37;14.67;;;11.37;;
7334;SDS011;3708;42.632;23.378;2023-05-07T03:56:04;16.50;;;12.23;;
7334;SDS011;3708;42.632;23.378;2023-05-07T03:58:33;15.83;;;11.83;;
7334;SDS011;3708;42.632;23.378;2023-05-07T04:01:00;13.47;;;10.97;;
7334;SDS011;3708;42.632;23.378;2023-05-07T04:03:27;13.13;;;11.00;;
7334;SDS011;3708;42.632;23.378;2023-05-07T04:05:54;14.03;;;11.00;;
7334;SDS011;3708;42.632;23.378;2023-05-07T04:08:20;14.03;;;11.50;;
7334;SDS011;3708;42.632;23.378;2023-05-07T04:10:47;14.63;;;12.23;;
7334;SDS011;3708;42.632;23.378;2023-05-07T04:13:14;17.63;;;11.43;;
7334;SDS011;3708;42.632;23.378;2023-05-07T04:15:42;14.07;;;10.97;;
7334;SDS011;3708;42.632;23.378;2023-05-07T04:18:10;15.17;;;12.23;;
7334;SDS011;3708;42.632;23.378;2023-05-07T04:20:36;16.07;;;11.17;;
7334;SDS011;3708;42.632;23.378;2023-05-07T04:23:03;14.70;;;12.10;;
7334;SDS011;3708;42.632;23.378;2023-05-07T04:25:30;18.53;;;11.93;;
7334;SDS011;3708;42.632;23.378;2023-05-07T04:27:57;16.97;;;11.37;;
7334;SDS011;3708;42.632;23.378;2023-05-07T04:30:24;16.80;;;11.87;;
7334;SDS011;3708;42.632;23.378;2023-05-07T04:32:52;15.83;;;12.03;;
7334;SDS011;3708;42.632;23.378;2023-05-07T04:35:19;18.50;;;10.83;;
7334;SDS011;3708;42.632;23.378;2023-05-07T04:37:45;14.50;;;11.33;;
7334;SDS011;3708;42.632;23.378;2023-05-07T04:40:12;14.43;;;11.47;;
7334;SDS011;3708;42.632;23.378;2023-05-07T04:42:39;17.83;;;10.40;;
7334;SDS011;3708;42.632;23.378;2023-05-07T04:45:06;12.70;;;10.87;;
7334;SDS011;3708;42.632;23.378;2023-05-07T04:47:33;14.13;;;11.43;;
7334;SDS011;3708;42.632;23.378;2023-05-07T04:50:02;13.70;;;10.60;;
7334;SDS011;3708;42.632;23.378;2023-05-07T04:52:29;14.50;;;10.33;;
7334;SDS011;3708;42.632;23.378;2023-05-07T04:54:56;11.23;;;9.60;;
7334;SDS011;3708;42.632;23.378;2023-05-07T04:57:25;12.03;;;10.23;;
7334;SDS011;3708;42.632;23.378;2023-05-07T04:59:52;12.77;;;10.63;;
7334;SDS011;3708;42.632;23.378;2023-05-07T05:02:19;11.83;;;8.80;;
7334;SDS011;3708;42.632;23.378;2023-05-07T05:04:45;9.53;;;8.23;;
7334;SDS011;3708;42.632;23.378;2023-05-07T05:07:13;13.37;;;9.00;;
7334;SDS011;3708;42.632;23.378;2023-05-07T05:09:40;14.73;;;10.77;;
7334;SDS011;3708;42.632;23.378;2023-05-07T05:12:07;12.27;;;9.27;;
7334;SDS011;3708;42.632;23.378;2023-05-07T05:14:34;16.50;;;10.23;;
7334;SDS011;3708;42.632;23.378;2023-05-07T05:17:01;12.97;;;10.30;;
7334;SDS011;3708;42.632;23.378;2023-05-07T05:19:28;16.93;;;10.23;;
7334;SDS011;3708;42.632;23.378;2023-05-07T05:21:55;12.27;;;9.67;;
7334;SDS011;3708;42.632;23.378;2023-05-07T05:24:23;13.73;;;10.17;;
7334;SDS011;3708;42.632;23.378;2023-05-07T05:26:50;11.97;;;10.13;;
7334;SDS011;3708;42.632;23.378;2023-05-07T05:29:19;12.50;;;9.80;;
7334;SDS011;3708;42.632;23.378;2023-05-07T05:31:46;13.90;;;10.67;;
7334;SDS011;3708;42.632;23.378;2023-05-07T05:34:13;15.93;;;9.80;;
7334;SDS011;3708;42.632;23.378;2023-05-07T05:36:40;14.03;;;10.93;;
7334;SDS011;3708;42.632;23.378;2023-05-07T05:39:07;14.20;;;10.00;;
7334;SDS011;3708;42.632;23.378;2023-05-07T05:41:36;15.87;;;10.07;;
7334;SDS011;3708;42.632;23.378;2023-05-07T05:44:02;16.60;;;9.80;;
7334;SDS011;3708;42.632;23.378;2023-05-07T05:46:29;11.50;;;9.37;;
7334;SDS011;3708;42.632;23.378;2023-05-07T05:48:56;12.37;;;9.33;;
7334;SDS011;3708;42.632;23.378;2023-05-07T05:51:23;10.40;;;8.87;;
7334;SDS011;3708;42.632;23.378;2023-05-07T05:53:50;11.37;;;9.33;;
7334;SDS011;3708;42.632;23.378;2023-05-07T05:56:17;18.37;;;9.40;;
7334;SDS011;3708;42.632;23.378;2023-05-07T05:58:45;11.67;;;8.30;;
7334;SDS011;3708;42.632;23.378;2023-05-07T06:01:12;10.40;;;9.10;;
7334;SDS011;3708;42.632;23.378;2023-05-07T06:03:39;10.03;;;8.97;;
7334;SDS011;3708;42.632;23.378;2023-05-07T06:06:06;11.77;;;8.70;;
7334;SDS011;3708;42.632;23.378;2023-05-07T06:08:33;9.67;;;8.07;;
7334;SDS011;3708;42.632;23.378;2023-05-07T06:11:00;10.47;;;8.87;;
7334;SDS011;3708;42.632;23.378;2023-05-07T06:13:27;18.50;;;8.47;;
7334;SDS011;3708;42.632;23.378;2023-05-07T06:15:55;13.47;;;8.50;;
7334;SDS011;3708;42.632;23.378;2023-05-07T06:18:22;10.77;;;8.47;;
7334;SDS011;3708;42.632;23.378;2023-05-07T06:20:49;9.97;;;8.67;;
7334;SDS011;3708;42.632;23.378;2023-05-07T06:23:16;10.70;;;8.20;;
7334;SDS011;3708;42.632;23.378;2023-05-07T06:25:45;8.67;;;7.73;;
7334;SDS011;3708;42.632;23.378;2023-05-07T06:28:14;11.23;;;8.63;;
7334;SDS011;3708;42.632;23.378;2023-05-07T06:30:41;8.83;;;7.93;;
7334;SDS011;3708;42.632;23.378;2023-05-07T06:33:09;10.57;;;8.40;;
7334;SDS011;3708;42.632;23.378;2023-05-07T06:35:36;14.00;;;8.93;;
7334;SDS011;3708;42.632;23.378;2023-05-07T06:38:02;18.33;;;8.10;;
7334;SDS011;3708;42.632;23.378;2023-05-07T06:40:29;12.47;;;8.10;;
7334;SDS011;3708;42.632;23.378;2023-05-07T06:42:56;10.93;;;7.70;;
7334;SDS011;3708;42.632;23.378;2023-05-07T06:45:23;9.67;;;7.77;;
7334;SDS011;3708;42.632;23.378;2023-05-07T06:47:50;11.03;;;7.43;;
7334;SDS011;3708;42.632;23.378;2023-05-07T06:50:18;11.03;;;7.63;;
7334;SDS011;3708;42.632;23.378;2023-05-07T06:52:45;12.40;;;7.33;;
7334;SDS011;3708;42.632;23.378;2023-05-07T06:55:12;11.63;;;7.97;;
7334;SDS011;3708;42.632;23.378;2023-05-07T06:57:39;13.47;;;7.37;;
7334;SDS011;3708;42.632;23.378;2023-05-07T07:00:06;10.30;;;7.47;;
7334;SDS011;3708;42.632;23.378;2023-05-07T07:02:34;8.03;;;6.57;;
7334;SDS011;3708;42.632;23.378;2023-05-07T07:05:00;7.97;;;6.33;;
7334;SDS011;3708;42.632;23.378;2023-05-07T07:07:29;7.70;;;6.80;;
7334;SDS011;3708;42.632;23.378;2023-05-07T07:09:55;8.80;;;6.77;;
7334;SDS011;3708;42.632;23.378;2023-05-07T07:12:22;8.17;;;7.13;;
7334;SDS011;3708;42.632;23.378;2023-05-07T07:14:51;12.77;;;7.47;;
7334;SDS011;3708;42.632;23.378;2023-05-07T07:17:17;11.73;;;7.20;;
7334;SDS011;3708;42.632;23.378;2023-05-07T07:19:44;9.90;;;8.00;;
7334;SDS011;3708;42.632;23.378;2023-05-07T07:22:11;12.83;;;7.80;;
7334;SDS011;3708;42.632;23.378;2023-05-07T07:24:39;10.60;;;8.00;;
7334;SDS011;3708;42.632;23.378;2023-05-07T07:27:06;9.33;;;7.60;;
7334;SDS011;3708;42.632;23.378;2023-05-07T07:29:32;8.93;;;7.33;;
7334;SDS011;3708;42.632;23.378;2023-05-07T07:31:59;10.13;;;7.10;;
7334;SDS011;3708;42.632;23.378;2023-05-07T07:34:26;7.90;;;7.10;;
7334;SDS011;3708;42.632;23.378;2023-05-07T07:36:53;9.63;;;6.87;;
7334;SDS011;3708;42.632;23.378;2023-05-07T07:39:20;11.40;;;7.60;;
7334;SDS011;3708;42.632;23.378;2023-05-07T07:41:48;8.53;;;7.20;;
7334;SDS011;3708;42.632;23.378;2023-05-07T07:44:15;11.80;;;7.20;;
7334;SDS011;3708;42.632;23.378;2023-05-07T07:46:42;7.17;;;6.27;;
7334;SDS011;3708;42.632;23.378;2023-05-07T07:49:09;13.73;;;7.20;;
7334;SDS011;3708;42.632;23.378;2023-05-07T07:51:35;9.63;;;6.87;;
7334;SDS011;3708;42.632;23.378;2023-05-07T07:54:02;9.43;;;6.80;;
7334;SDS011;3708;42.632;23.378;2023-05-07T07:56:29;11.50;;;6.67;;
7334;SDS011;3708;42.632;23.378;2023-05-07T07:58:59;8.77;;;6.07;;
7334;SDS011;3708;42.632;23.378;2023-05-07T08:01:26;7.20;;;6.13;;
7334;SDS011;3708;42.632;23.378;2023-05-07T08:03:53;8.23;;;6.80;;
7334;SDS011;3708;42.632;23.378;2023-05-07T08:06:20;7.50;;;6.70;;
7334;SDS011;3708;42.632;23.378;2023-05-07T08:08:47;10.83;;;6.27;;
7334;SDS011;3708;42.632;23.378;2023-05-07T08:11:14;10.43;;;7.30;;
7334;SDS011;3708;42.632;23.378;2023-05-07T08:13:40;11.37;;;6.67;;
7334;SDS011;3708;42.632;23.378;2023-05-07T08:16:09;14.80;;;7.07;;
7334;SDS011;3708;42.632;23.378;2023-05-07T08:18:36;7.77;;;6.50;;
7334;SDS011;3708;42.632;23.378;2023-05-07T08:21:02;8.20;;;6.60;;
7334;SDS011;3708;42.632;23.378;2023-05-07T08:23:30;9.43;;;6.63;;
7334;SDS011;3708;42.632;23.378;2023-05-07T08:25:56;13.33;;;7.30;;
7334;SDS011;3708;42.632;23.378;2023-05-07T08:28:24;7.43;;;6.10;;
7334;SDS011;3708;42.632;23.378;2023-05-07T08:30:50;8.30;;;6.60;;
7334;SDS011;3708;42.632;23.378;2023-05-07T08:33:19;9.47;;;7.10;;
7334;SDS011;3708;42.632;23.378;2023-05-07T08:35:46;10.30;;;6.23;;
7334;SDS011;3708;42.632;23.378;2023-05-07T08:38:12;11.40;;;7.77;;
7334;SDS011;3708;42.632;23.378;2023-05-07T08:40:39;7.90;;;6.67;;
7334;SDS011;3708;42.632;23.378;2023-05-07T08:43:07;9.23;;;6.60;;
7334;SDS011;3708;42.632;23.378;2023-05-07T08:45:34;7.73;;;5.87;;
7334;SDS011;3708;42.632;23.378;2023-05-07T08:48:02;7.17;;;5.43;;
7334;SDS011;3708;42.632;23.378;2023-05-07T08:50:31;7.53;;;5.70;;
7334;SDS011;3708;42.632;23.378;2023-05-07T08:52:58;8.52;;;6.10;;
7334;SDS011;3708;42.632;23.378;2023-05-07T08:55:25;11.48;;;6.40;;
7334;SDS011;3708;42.632;23.378;2023-05-07T08:57:52;7.88;;;6.05;;
7334;SDS011;3708;42.632;23.378;2023-05-07T09:00:18;6.00;;;5.40;;
7334;SDS011;3708;42.632;23.378;2023-05-07T09:02:45;8.35;;;5.03;;
7334;SDS011;3708;42.632;23.378;2023-05-07T09:05:12;9.93;;;5.40;;
7334;SDS011;3708;42.632;23.378;2023-05-07T09:07:40;6.65;;;4.97;;
7334;SDS011;3708;42.632;23.378;2023-05-07T09:10:07;8.45;;;5.03;;
7334;SDS011;3708;42.632;23.378;2023-05-07T09:12:35;6.57;;;5.38;;
7334;SDS011;3708;42.632;23.378;2023-05-07T09:15:02;8.35;;;5.20;;
7334;SDS011;3708;42.632;23.378;2023-05-07T09:17:29;6.55;;;5.57;;
7334;SDS011;3708;42.632;23.378;2023-05-07T09:19:55;7.50;;;5.63;;
7334;SDS011;3708;42.632;23.378;2023-05-07T09:22:22;6.93;;;4.65;;
7334;SDS011;3708;42.632;23.378;2023-05-07T09:24:51;4.97;;;4.20;;
7334;SDS011;3708;42.632;23.378;2023-05-07T09:27:18;6.05;;;5.10;;
7334;SDS011;3708;42.632;23.378;2023-05-07T09:29:45;9.48;;;4.70;;
7334;SDS011;3708;42.632;23.378;2023-05-07T09:32:12;7.40;;;4.95;;
7334;SDS011;3708;42.632;23.378;2023-05-07T09:34:41;4.95;;;4.45;;
7334;SDS011;3708;42.632;23.378;2023-05-07T09:37:08;6.68;;;4.80;;
7334;SDS011;3708;42.632;23.378;2023-05-07T09:39:38;8.77;;;4.38;;
7334;SDS011;3708;42.632;23.378;2023-05-07T09:42:07;5.80;;;3.70;;
7334;SDS011;3708;42.632;23.378;2023-05-07T09:44:34;5.00;;;4.20;;
7334;SDS011;3708;42.632;23.378;2023-05-07T09:47:01;4.75;;;4.03;;
7334;SDS011;3708;42.632;23.378;2023-05-07T09:49:31;5.45;;;3.90;;
7334;SDS011;3708;42.632;23.378;2023-05-07T09:52:02;4.95;;;4.20;;
7334;SDS011;3708;42.632;23.378;2023-05-07T09:54:31;5.20;;;4.10;;
7334;SDS011;3708;42.632;23.378;2023-05-07T09:56:59;7.78;;;4.40;;
7334;SDS011;3708;42.632;23.378;2023-05-07T09:59:30;4.95;;;4.13;;
7334;SDS011;3708;42.632;23.378;2023-05-07T10:02:00;8.32;;;4.30;;
7334;SDS011;3708;42.632;23.378;2023-05-07T10:04:27;6.45;;;4.05;;
7334;SDS011;3708;42.632;23.378;2023-05-07T10:06:55;5.72;;;4.28;;
7334;SDS011;3708;42.632;23.378;2023-05-07T10:09:23;7.78;;;4.07;;
7334;SDS011;3708;42.632;23.378;2023-05-07T10:11:51;7.00;;;3.95;;
7334;SDS011;3708;42.632;23.378;2023-05-07T10:14:19;4.78;;;3.58;;
7334;SDS011;3708;42.632;23.378;2023-05-07T10:16:48;8.07;;;3.80;;
7334;SDS011;3708;42.632;23.378;2023-05-07T10:19:15;5.57;;;4.05;;
7334;SDS011;3708;42.632;23.378;2023-05-07T10:21:44;5.38;;;4.18;;
7334;SDS011;3708;42.632;23.378;2023-05-07T10:24:19;6.20;;;4.45;;
7334;SDS011;3708;42.632;23.378;2023-05-07T10:26:48;5.70;;;4.03;;
7334;SDS011;3708;42.632;23.378;2023-05-07T10:29:19;5.93;;;3.63;;
7334;SDS011;3708;42.632;23.378;2023-05-07T10:31:58;4.57;;;3.80;;
7334;SDS011;3708;42.632;23.378;2023-05-07T10:34:34;6.03;;;4.80;;
7334;SDS011;3708;42.632;23.378;2023-05-07T10:37:05;5.82;;;4.05;;
7334;SDS011;3708;42.632;23.378;2023-05-07T10:39:32;5.38;;;4.65;;
7334;SDS011;3708;42.632;23.378;2023-05-07T10:42:07;4.80;;;3.92;;
7334;SDS011;3708;42.632;23.378;2023-05-07T10:44:35;5.25;;;4.25;;
7334;SDS011;3708;42.632;23.378;2023-05-07T10:47:10;4.43;;;3.95;;
7334;SDS011;3708;42.632;23.378;2023-05-07T10:52:38;6.60;;;4.03;;
7334;SDS011;3708;42.632;23.378;2023-05-07T10:55:20;4.22;;;3.67;;
7334;SDS011;3708;42.632;23.378;2023-05-07T10:57:50;6.25;;;4.30;;
7334;SDS011;3708;42.632;23.378;2023-05-07T11:03:10;4.10;;;3.28;;
7334;SDS011;3708;42.632;23.378;2023-05-07T11:05:38;5.10;;;3.10;;
7334;SDS011;3708;42.632;23.378;2023-05-07T11:08:05;7.78;;;4.13;;
7334;SDS011;3708;42.632;23.378;2023-05-07T11:10:47;4.55;;;3.70;;
7334;SDS011;3708;42.632;23.378;2023-05-07T11:13:15;4.40;;;4.00;;
7334;SDS011;3708;42.632;23.378;2023-05-07T11:15:43;7.57;;;4.00;;
7334;SDS011;3708;42.632;23.378;2023-05-07T11:18:13;4.57;;;3.92;;
7334;SDS011;3708;42.632;23.378;2023-05-07T11:20:45;5.57;;;3.53;;
7334;SDS011;3708;42.632;23.378;2023-05-07T11:26:16;5.47;;;3.53;;
7334;SDS011;3708;42.632;23.378;2023-05-07T11:28:43;4.85;;;3.70;;
7334;SDS011;3708;42.632;23.378;2023-05-07T11:31:10;4.72;;;3.50;;
7334;SDS011;3708;42.632;23.378;2023-05-07T11:33:38;6.90;;;3.35;;
7334;SDS011;3708;42.632;23.378;2023-05-07T11:36:07;8.15;;;4.10;;
7334;SDS011;3708;42.632;23.378;2023-05-07T11:38:34;3.78;;;3.25;;
7334;SDS011;3708;42.632;23.378;2023-05-07T11:41:02;3.40;;;3.10;;
7334;SDS011;3708;42.632;23.378;2023-05-07T11:43:30;5.97;;;3.70;;
7334;SDS011;3708;42.632;23.378;2023-05-07T11:46:04;4.65;;;3.50;;
7334;SDS011;3708;42.632;23.378;2023-05-07T11:48:33;4.68;;;3.75;;
7334;SDS011;3708;42.632;23.378;2023-05-07T11:51:02;5.97;;;3.63;;
7334;SDS011;3708;42.632;23.378;2023-05-07T11:53:35;6.78;;;3.58;;
7334;SDS011;3708;42.632;23.378;2023-05-07T11:56:05;4.97;;;3.50;;
7334;SDS011;3708;42.632;23.378;2023-05-07T11:58:33;10.82;;;3.58;;
7334;SDS011;3708;42.632;23.378;2023-05-07T12:01:00;5.22;;;3.58;;
7334;SDS011;3708;42.632;23.378;2023-05-07T12:03:27;5.28;;;3.83;;
7334;SDS011;3708;42.632;23.378;2023-05-07T12:05:53;7.32;;;3.83;;
7334;SDS011;3708;42.632;23.378;2023-05-07T12:08:22;5.28;;;3.95;;
7334;SDS011;3708;42.632;23.378;2023-05-07T12:10:49;4.40;;;3.38;;
7334;SDS011;3708;42.632;23.378;2023-05-07T12:13:16;5.85;;;3.70;;
7334;SDS011;3708;42.632;23.378;2023-05-07T12:15:44;6.75;;;3.65;;
7334;SDS011;3708;42.632;23.378;2023-05-07T12:18:11;4.43;;;3.35;;
7334;SDS011;3708;42.632;23.378;2023-05-07T12:20:38;3.85;;;3.35;;
7334;SDS011;3708;42.632;23.378;2023-05-07T12:23:05;5.90;;;3.53;;
7334;SDS011;3708;42.632;23.378;2023-05-07T12:25:35;5.85;;;3.60;;
7334;SDS011;3708;42.632;23.378;2023-05-07T12:28:03;4.25;;;3.60;;
7334;SDS011;3708;42.632;23.378;2023-05-07T12:30:30;4.10;;;3.55;;
7334;SDS011;3708;42.632;23.378;2023-05-07T12:32:57;7.97;;;3.63;;
7334;SDS011;3708;42.632;23.378;2023-05-07T12:35:27;6.30;;;3.97;;
7334;SDS011;3708;42.632;23.378;2023-05-07T12:37:54;4.10;;;3.65;;
7334;SDS011;3708;42.632;23.378;2023-05-07T12:40:22;5.00;;;3.40;;
7334;SDS011;3708;42.632;23.378;2023-05-07T12:42:54;3.45;;;3.15;;
7334;SDS011;3708;42.632;23.378;2023-05-07T12:45:28;4.18;;;3.17;;
7334;SDS011;3708;42.632;23.378;2023-05-07T12:47:55;4.88;;;3.47;;
7334;SDS011;3708;42.632;23.378;2023-05-07T12:50:22;5.68;;;3.58;;
7334;SDS011;3708;42.632;23.378;2023-05-07T12:52:49;5.32;;;3.30;;
7334;SDS011;3708;42.632;23.378;2023-05-07T12:55:16;5.60;;;3.50;;
7334;SDS011;3708;42.632;23.378;2023-05-07T12:57:45;4.68;;;3.08;;
7334;SDS011;3708;42.632;23.378;2023-05-07T13:00:17;3.60;;;3.30;;
7334;SDS011;3708;42.632;23.378;2023-05-07T13:02:44;6.03;;;2.80;;
7334;SDS011;3708;42.632;23.378;2023-05-07T13:05:11;3.17;;;2.88;;
7334;SDS011;3708;42.632;23.378;2023-05-07T13:07:39;7.15;;;3.45;;
7334;SDS011;3708;42.632;23.378;2023-05-07T13:10:06;7.13;;;3.05;;
7334;SDS011;3708;42.632;23.378;2023-05-07T13:12:34;7.20;;;3.75;;
7334;SDS011;3708;42.632;23.378;2023-05-07T13:15:01;5.20;;;3.17;;
7334;SDS011;3708;42.632;23.378;2023-05-07T13:17:29;3.97;;;3.20;;
7334;SDS011;3708;42.632;23.378;2023-05-07T13:19:56;7.43;;;2.72;;
7334;SDS011;3708;42.632;23.378;2023-05-07T13:22:23;4.35;;;2.90;;
7334;SDS011;3708;42.632;23.378;2023-05-07T13:24:50;4.90;;;3.13;;
7334;SDS011;3708;42.632;23.378;2023-05-07T13:27:17;5.07;;;3.35;;
7334;SDS011;3708;42.632;23.378;2023-05-07T13:29:44;3.83;;;2.92;;
7334;SDS011;3708;42.632;23.378;2023-05-07T13:32:11;4.15;;;2.70;;
7334;SDS011;3708;42.632;23.378;2023-05-07T13:34:39;3.58;;;2.70;;
7334;SDS011;3708;42.632;23.378;2023-05-07T13:37:06;4.35;;;2.65;;
7334;SDS011;3708;42.632;23.378;2023-05-07T13:39:33;3.30;;;2.85;;
7334;SDS011;3708;42.632;23.378;2023-05-07T13:41:59;4.03;;;2.85;;
7334;SDS011;3708;42.632;23.378;2023-05-07T13:44:26;3.63;;;2.60;;
7334;SDS011;3708;42.632;23.378;2023-05-07T13:46:53;3.15;;;2.70;;
7334;SDS011;3708;42.632;23.378;2023-05-07T13:49:20;4.93;;;2.72;;
7334;SDS011;3708;42.632;23.378;2023-05-07T13:51:48;3.25;;;2.70;;
7334;SDS011;3708;42.632;23.378;2023-05-07T13:54:15;4.30;;;2.60;;
7334;SDS011;3708;42.632;23.378;2023-05-07T13:56:42;4.28;;;2.58;;
7334;SDS011;3708;42.632;23.378;2023-05-07T13:59:08;4.32;;;2.58;;
7334;SDS011;3708;42.632;23.378;2023-05-07T14:01:35;3.53;;;2.53;;
7334;SDS011;3708;42.632;23.378;2023-05-07T14:04:02;2.95;;;2.50;;
7334;SDS011;3708;42.632;23.378;2023-05-07T14:06:29;4.00;;;3.00;;
7334;SDS011;3708;42.632;23.378;2023-05-07T14:08:57;5.57;;;2.80;;
7334;SDS011;3708;42.632;23.378;2023-05-07T14:11:25;2.90;;;2.60;;
7334;SDS011;3708;42.632;23.378;2023-05-07T14:13:52;5.75;;;3.00;;
7334;SDS011;3708;42.632;23.378;2023-05-07T14:16:18;5.70;;;2.80;;
7334;SDS011;3708;42.632;23.378;2023-05-07T14:18:45;4.68;;;2.75;;
7334;SDS011;3708;42.632;23.378;2023-05-07T14:21:12;3.85;;;2.13;;
7334;SDS011;3708;42.632;23.378;2023-05-07T14:23:39;3.97;;;2.40;;
7334;SDS011;3708;42.632;23.378;2023-05-07T14:26:07;3.85;;;2.72;;
7334;SDS011;3708;42.632;23.378;2023-05-07T14:28:34;6.47;;;2.78;;
7334;SDS011;3708;42.632;23.378;2023-05-07T14:31:00;4.30;;;2.50;;
7334;SDS011;3708;42.632;23.378;2023-05-07T14:33:27;5.25;;;2.88;;
7334;SDS011;3708;42.632;23.378;2023-05-07T14:35:54;3.08;;;2.40;;
7334;SDS011;3708;42.632;23.378;2023-05-07T14:38:21;2.60;;;2.40;;
7334;SDS011;3708;42.632;23.378;2023-05-07T14:40:47;5.93;;;3.05;;
7334;SDS011;3708;42.632;23.378;2023-05-07T14:43:16;3.85;;;2.55;;
7334;SDS011;3708;42.632;23.378;2023-05-07T14:45:42;3.97;;;2.45;;
7334;SDS011;3708;42.632;23.378;2023-05-07T14:48:09;4.50;;;2.92;;
7334;SDS011;3708;42.632;23.378;2023-05-07T14:50:40;3.35;;;2.60;;
7334;SDS011;3708;42.632;23.378;2023-05-07T14:53:06;3.13;;;2.80;;
7334;SDS011;3708;42.632;23.378;2023-05-07T14:55:33;2.97;;;2.30;;
7334;SDS011;3708;42.632;23.378;2023-05-07T14:58:00;5.40;;;2.90;;
7334;SDS011;3708;42.632;23.378;2023-05-07T15:00:29;3.90;;;2.33;;
7334;SDS011;3708;42.632;23.378;2023-05-07T15:02:55;4.60;;;2.88;;
7334;SDS011;3708;42.632;23.378;2023-05-07T15:05:31;5.97;;;2.85;;